sensor_id;sensor_type;location;lat;lon;timestamp;pressure;altitude;pressure_sealevel;temperature;humidity
33151;BME280;19508;42.578;23.416;2022-10-17T00:01:21;94962.66;;;7.94;67.75
33151;BME280;19508;42.578;23.416;2022-10-17T00:03:46;94969.03;;;7.93;67.42
33151;BME280;19508;42.578;23.416;2022-10-17T00:06:13;94967.63;;;7.90;67.85
33151;BME280;19508;42.578;23.416;2022-10-17T00:08:39;94965.38;;;7.81;67.52
33151;BME280;19508;42.578;23.416;2022-10-17T00:11:15;94972.41;;;7.62;69.02
33151;BME280;19508;42.578;23.416;2022-10-17T00:13:41;94972.59;;;7.67;68.94
33151;BME280;19508;42.578;23.416;2022-10-17T00:16:06;94968.47;;;7.58;69.74
33151;BME280;19508;42.578;23.416;2022-10-17T00:18:32;94968.69;;;7.70;69.20
33151;BME280;19508;42.578;23.416;2022-10-17T00:20:57;94976.91;;;7.75;69.01
33151;BME280;19508;42.578;23.416;2022-10-17T00:23:23;94964.13;;;7.77;69.01
33151;BME280;19508;42.578;23.416;2022-10-17T00:26:03;94971.94;;;7.98;68.63
33151;BME280;19508;42.578;23.416;2022-10-17T00:28:30;94971.72;;;7.93;68.51
33151;BME280;19508;42.578;23.416;2022-10-17T00:30:57;94976.88;;;7.95;67.70
33151;BME280;19508;42.578;23.416;2022-10-17T00:33:23;94978.34;;;7.97;67.16
33151;BME280;19508;42.578;23.416;2022-10-17T00:35:49;94968.88;;;7.88;67.30
33151;BME280;19508;42.578;23.416;2022-10-17T00:38:14;94966.19;;;7.88;66.95
33151;BME280;19508;42.578;23.416;2022-10-17T00:40:40;94967.66;;;7.71;67.45
33151;BME280;19508;42.578;23.416;2022-10-17T00:43:14;94974.88;;;7.63;68.33
33151;BME280;19508;42.578;23.416;2022-10-17T00:45:41;94969.09;;;7.53;68.28
33151;BME280;19508;42.578;23.416;2022-10-17T00:48:08;94973.63;;;7.59;68.16
33151;BME280;19508;42.578;23.416;2022-10-17T00:50:37;94971.56;;;7.61;68.23
33151;BME280;19508;42.578;23.416;2022-10-17T00:53:04;94974.66;;;7.58;68.46
33151;BME280;19508;42.578;23.416;2022-10-17T00:55:34;94973.84;;;7.58;68.09
33151;BME280;19508;42.578;23.416;2022-10-17T00:58:02;94974.66;;;7.58;68.94
33151;BME280;19508;42.578;23.416;2022-10-17T01:00:29;94971.34;;;7.50;69.09
33151;BME280;19508;42.578;23.416;2022-10-17T01:02:54;94967.66;;;7.57;68.71
33151;BME280;19508;42.578;23.416;2022-10-17T01:05:20;94973.63;;;7.59;68.57
33151;BME280;19508;42.578;23.416;2022-10-17T01:07:48;94966.63;;;7.58;68.54
33151;BME280;19508;42.578;23.416;2022-10-17T01:10:15;94957.53;;;7.59;69.00
33151;BME280;19508;42.578;23.416;2022-10-17T01:18:10;94957.97;;;7.63;69.50
33151;BME280;19508;42.578;23.416;2022-10-17T01:21:06;94964.97;;;7.64;69.46
33151;BME280;19508;42.578;23.416;2022-10-17T01:23:58;94963.31;;;7.70;68.83
33151;BME280;19508;42.578;23.416;2022-10-17T01:32:16;94965.19;;;7.62;69.09
33151;BME280;19508;42.578;23.416;2022-10-17T01:35:29;94962.28;;;7.57;68.78
33151;BME280;19508;42.578;23.416;2022-10-17T01:37:58;94966.00;;;7.50;69.52
33151;BME280;19508;42.578;23.416;2022-10-17T01:41:13;94965.56;;;7.59;69.44
33151;BME280;19508;42.578;23.416;2022-10-17T01:43:40;94964.97;;;7.57;69.57
33151;BME280;19508;42.578;23.416;2022-10-17T01:46:17;94971.56;;;7.48;70.47
33151;BME280;19508;42.578;23.416;2022-10-17T01:48:44;94971.16;;;7.51;70.14
33151;BME280;19508;42.578;23.416;2022-10-17T01:51:52;94974.03;;;7.63;69.87
33151;BME280;19508;42.578;23.416;2022-10-17T01:54:34;94968.88;;;7.68;69.77
33151;BME280;19508;42.578;23.416;2022-10-17T01:57:05;94975.28;;;7.74;69.98
33151;BME280;19508;42.578;23.416;2022-10-17T01:59:39;94983.94;;;7.76;69.87
33151;BME280;19508;42.578;23.416;2022-10-17T02:02:06;94989.47;;;7.94;69.00
33151;BME280;19508;42.578;23.416;2022-10-17T02:04:34;94990.53;;;7.80;69.05
33151;BME280;19508;42.578;23.416;2022-10-17T02:07:11;94983.94;;;7.76;69.15
33151;BME280;19508;42.578;23.416;2022-10-17T02:09:38;94989.28;;;7.76;69.14
33151;BME280;19508;42.578;23.416;2022-10-17T02:14:59;94982.72;;;7.78;68.70
33151;BME280;19508;42.578;23.416;2022-10-17T02:17:54;94998.97;;;7.90;67.98
33151;BME280;19508;42.578;23.416;2022-10-17T02:26:09;94998.38;;;7.48;67.66
33151;BME280;19508;42.578;23.416;2022-10-17T02:30:54;94995.28;;;7.38;67.91
33151;BME280;19508;42.578;23.416;2022-10-17T02:33:34;95006.22;;;7.37;67.75
33151;BME280;19508;42.578;23.416;2022-10-17T02:36:08;95012.78;;;7.21;67.99
33151;BME280;19508;42.578;23.416;2022-10-17T02:38:35;95001.22;;;7.14;68.05
33151;BME280;19508;42.578;23.416;2022-10-17T02:41:04;95013.97;;;7.05;68.58
33151;BME280;19508;42.578;23.416;2022-10-17T02:43:33;95013.34;;;6.96;70.08
33151;BME280;19508;42.578;23.416;2022-10-17T02:45:59;95014.56;;;7.00;70.65
33151;BME280;19508;42.578;23.416;2022-10-17T02:48:43;95004.31;;;7.17;70.27
33151;BME280;19508;42.578;23.416;2022-10-17T02:54:20;95013.16;;;7.18;68.99
33151;BME280;19508;42.578;23.416;2022-10-17T02:56:52;95012.34;;;7.17;68.93
33151;BME280;19508;42.578;23.416;2022-10-17T02:59:20;95017.09;;;7.15;69.62
33151;BME280;19508;42.578;23.416;2022-10-17T03:01:48;95023.47;;;7.14;69.98
33151;BME280;19508;42.578;23.416;2022-10-17T03:04:16;95028.44;;;7.24;69.41
33151;BME280;19508;42.578;23.416;2022-10-17T03:06:44;95025.53;;;7.12;69.80
33151;BME280;19508;42.578;23.416;2022-10-17T03:09:10;95031.72;;;7.13;69.65
33151;BME280;19508;42.578;23.416;2022-10-17T03:11:36;95029.88;;;7.20;69.45
33151;BME280;19508;42.578;23.416;2022-10-17T03:14:02;95028.03;;;7.27;69.16
33151;BME280;19508;42.578;23.416;2022-10-17T03:16:28;95023.91;;;7.24;69.82
33151;BME280;19508;42.578;23.416;2022-10-17T03:18:53;95029.03;;;7.26;69.24
33151;BME280;19508;42.578;23.416;2022-10-17T03:21:18;95029.03;;;7.26;69.22
33151;BME280;19508;42.578;23.416;2022-10-17T03:23:44;95029.03;;;7.26;69.73
33151;BME280;19508;42.578;23.416;2022-10-17T03:26:10;95025.97;;;7.22;70.02
33151;BME280;19508;42.578;23.416;2022-10-17T03:28:35;95021.44;;;7.23;70.11
33151;BME280;19508;42.578;23.416;2022-10-17T03:31:13;95021.84;;;7.20;69.79
33151;BME280;19508;42.578;23.416;2022-10-17T03:33:39;95030.06;;;7.25;69.42
33151;BME280;19508;42.578;23.416;2022-10-17T03:36:10;95015.63;;;7.13;69.39
33151;BME280;19508;42.578;23.416;2022-10-17T03:38:40;95017.09;;;7.22;69.11
33151;BME280;19508;42.578;23.416;2022-10-17T03:41:06;95030.50;;;7.22;69.54
33151;BME280;19508;42.578;23.416;2022-10-17T03:43:32;95035.03;;;7.21;69.47
33151;BME280;19508;42.578;23.416;2022-10-17T03:45:58;95038.13;;;7.25;68.96
33151;BME280;19508;42.578;23.416;2022-10-17T03:48:24;95020.59;;;7.16;68.21
33151;BME280;19508;42.578;23.416;2022-10-17T03:50:50;95039.94;;;7.18;68.43
33151;BME280;19508;42.578;23.416;2022-10-17T03:53:16;95044.06;;;7.14;68.18
33151;BME280;19508;42.578;23.416;2022-10-17T03:55:41;95029.22;;;7.04;67.91
33151;BME280;19508;42.578;23.416;2022-10-17T03:58:06;95052.91;;;7.07;68.18
33151;BME280;19508;42.578;23.416;2022-10-17T04:00:34;95050.63;;;6.98;68.21
33151;BME280;19508;42.578;23.416;2022-10-17T04:03:00;95046.25;;;6.90;68.47
33151;BME280;19508;42.578;23.416;2022-10-17T04:05:25;95045.69;;;6.95;68.33
33151;BME280;19508;42.578;23.416;2022-10-17T04:07:50;95052.25;;;6.86;68.67
33151;BME280;19508;42.578;23.416;2022-10-17T04:10:16;95055.91;;;6.78;68.58
33151;BME280;19508;42.578;23.416;2022-10-17T04:12:42;95051.75;;;6.69;68.81
33151;BME280;19508;42.578;23.416;2022-10-17T04:15:08;95060.00;;;6.74;68.70
33151;BME280;19508;42.578;23.416;2022-10-17T04:17:33;95053.41;;;6.70;68.80
33151;BME280;19508;42.578;23.416;2022-10-17T04:19:59;95062.66;;;6.67;68.69
33151;BME280;19508;42.578;23.416;2022-10-17T04:22:24;95052.53;;;6.63;69.18
33151;BME280;19508;42.578;23.416;2022-10-17T04:24:49;95065.34;;;6.67;69.20
33151;BME280;19508;42.578;23.416;2022-10-17T04:27:15;95062.84;;;6.59;69.31
33151;BME280;19508;42.578;23.416;2022-10-17T04:29:40;95069.00;;;6.60;68.95
33151;BME280;19508;42.578;23.416;2022-10-17T04:32:05;95067.53;;;6.50;69.14
33151;BME280;19508;42.578;23.416;2022-10-17T04:34:31;95066.88;;;6.48;69.22
33151;BME280;19508;42.578;23.416;2022-10-17T04:36:56;95071.41;;;6.48;69.69
33151;BME280;19508;42.578;23.416;2022-10-17T04:39:22;95071.75;;;6.38;69.66
33151;BME280;19508;42.578;23.416;2022-10-17T04:41:47;95071.56;;;6.40;69.71
33151;BME280;19508;42.578;23.416;2022-10-17T04:44:13;95078.38;;;6.42;69.55
33151;BME280;19508;42.578;23.416;2022-10-17T04:46:38;95077.13;;;6.38;69.61
33151;BME280;19508;42.578;23.416;2022-10-17T04:49:04;95077.53;;;6.35;69.51
33151;BME280;19508;42.578;23.416;2022-10-17T04:51:29;95076.91;;;6.33;69.43
33151;BME280;19508;42.578;23.416;2022-10-17T04:53:55;95079.13;;;6.30;69.87
33151;BME280;19508;42.578;23.416;2022-10-17T04:56:22;95081.59;;;6.31;70.43
33151;BME280;19508;42.578;23.416;2022-10-17T04:58:47;95090.22;;;6.27;70.10
33151;BME280;19508;42.578;23.416;2022-10-17T05:01:18;95067.28;;;6.11;71.30
33151;BME280;19508;42.578;23.416;2022-10-17T05:03:44;95074.31;;;6.18;71.05
33151;BME280;19508;42.578;23.416;2022-10-17T05:06:12;95085.69;;;6.27;70.90
33151;BME280;19508;42.578;23.416;2022-10-17T05:08:38;95087.75;;;6.25;71.07
33151;BME280;19508;42.578;23.416;2022-10-17T05:11:05;95092.28;;;6.31;70.59
33151;BME280;19508;42.578;23.416;2022-10-17T05:13:31;95093.94;;;6.32;70.73
33151;BME280;19508;42.578;23.416;2022-10-17T05:15:59;95087.50;;;6.20;70.31
33151;BME280;19508;42.578;23.416;2022-10-17T05:18:25;95088.53;;;6.19;71.37
33151;BME280;19508;42.578;23.416;2022-10-17T05:20:51;95106.69;;;6.30;71.40
33151;BME280;19508;42.578;23.416;2022-10-17T05:23:16;95101.13;;;6.25;71.65
33151;BME280;19508;42.578;23.416;2022-10-17T05:25:41;95099.06;;;6.27;72.92
33151;BME280;19508;42.578;23.416;2022-10-17T05:28:07;95106.38;;;6.46;73.64
33151;BME280;19508;42.578;23.416;2022-10-17T05:30:33;95114.72;;;6.65;73.79
33151;BME280;19508;42.578;23.416;2022-10-17T05:32:59;95109.03;;;6.81;74.29
33151;BME280;19508;42.578;23.416;2022-10-17T05:35:24;95102.38;;;7.12;73.53
33151;BME280;19508;42.578;23.416;2022-10-17T05:37:50;95117.00;;;7.16;73.26
33151;BME280;19508;42.578;23.416;2022-10-17T05:40:15;95115.88;;;7.51;72.27
33151;BME280;19508;42.578;23.416;2022-10-17T05:42:45;95104.38;;;7.71;71.71
33151;BME280;19508;42.578;23.416;2022-10-17T05:45:11;95102.75;;;7.83;71.21
33151;BME280;19508;42.578;23.416;2022-10-17T05:47:37;95114.31;;;8.03;69.96
33151;BME280;19508;42.578;23.416;2022-10-17T05:50:02;95107.25;;;8.29;69.25
33151;BME280;19508;42.578;23.416;2022-10-17T05:52:28;95113.06;;;8.52;68.85
33151;BME280;19508;42.578;23.416;2022-10-17T05:54:53;95103.13;;;8.59;67.63
33151;BME280;19508;42.578;23.416;2022-10-17T05:57:19;95114.22;;;8.83;67.14
33151;BME280;19508;42.578;23.416;2022-10-17T05:59:44;95116.47;;;8.99;66.97
33151;BME280;19508;42.578;23.416;2022-10-17T06:02:11;95120.31;;;9.23;65.36
33151;BME280;19508;42.578;23.416;2022-10-17T06:04:37;95118.44;;;9.23;65.12
33151;BME280;19508;42.578;23.416;2022-10-17T06:07:03;95123.75;;;9.37;64.82
33151;BME280;19508;42.578;23.416;2022-10-17T06:09:29;95122.44;;;9.46;64.18
33151;BME280;19508;42.578;23.416;2022-10-17T06:11:54;95122.63;;;9.57;64.14
33151;BME280;19508;42.578;23.416;2022-10-17T06:14:20;95111.97;;;10.01;63.67
33151;BME280;19508;42.578;23.416;2022-10-17T06:16:45;95126.13;;;10.46;62.43
33151;BME280;19508;42.578;23.416;2022-10-17T06:19:11;95122.53;;;10.77;61.11
33151;BME280;19508;42.578;23.416;2022-10-17T06:21:36;95128.59;;;11.09;60.49
33151;BME280;19508;42.578;23.416;2022-10-17T06:24:03;95120.94;;;11.43;59.21
33151;BME280;19508;42.578;23.416;2022-10-17T06:26:28;95133.34;;;11.80;58.75
33151;BME280;19508;42.578;23.416;2022-10-17T06:28:54;95129.28;;;12.01;57.56
33151;BME280;19508;42.578;23.416;2022-10-17T06:31:20;95129.94;;;12.27;56.60
33151;BME280;19508;42.578;23.416;2022-10-17T06:33:45;95136.56;;;12.42;56.06
33151;BME280;19508;42.578;23.416;2022-10-17T06:36:12;95135.03;;;12.58;55.76
33151;BME280;19508;42.578;23.416;2022-10-17T06:38:38;95142.34;;;12.93;55.09
33151;BME280;19508;42.578;23.416;2022-10-17T06:41:09;95136.22;;;13.21;54.26
33151;BME280;19508;42.578;23.416;2022-10-17T06:43:38;95128.69;;;13.35;53.49
33151;BME280;19508;42.578;23.416;2022-10-17T06:46:04;95140.41;;;13.52;53.27
33151;BME280;19508;42.578;23.416;2022-10-17T06:48:30;95137.50;;;13.70;53.12
33151;BME280;19508;42.578;23.416;2022-10-17T06:50:59;95141.00;;;14.11;52.41
33151;BME280;19508;42.578;23.416;2022-10-17T06:53:29;95138.28;;;14.11;51.62
33151;BME280;19508;42.578;23.416;2022-10-17T06:55:54;95142.25;;;14.20;51.18
33151;BME280;19508;42.578;23.416;2022-10-17T06:58:28;95142.88;;;14.10;51.43
33151;BME280;19508;42.578;23.416;2022-10-17T07:01:01;95139.72;;;14.30;51.72
33151;BME280;19508;42.578;23.416;2022-10-17T07:03:27;95143.59;;;14.68;50.58
33151;BME280;19508;42.578;23.416;2022-10-17T07:05:54;95137.69;;;14.88;51.82
33151;BME280;19508;42.578;23.416;2022-10-17T07:08:20;95138.31;;;15.12;49.41
33151;BME280;19508;42.578;23.416;2022-10-17T07:10:46;95147.03;;;15.14;48.88
33151;BME280;19508;42.578;23.416;2022-10-17T07:13:11;95147.44;;;15.22;49.18
33151;BME280;19508;42.578;23.416;2022-10-17T07:15:37;95147.22;;;15.68;47.61
33151;BME280;19508;42.578;23.416;2022-10-17T07:18:03;95149.50;;;15.76;48.20
33151;BME280;19508;42.578;23.416;2022-10-17T07:20:28;95150.06;;;16.27;46.23
33151;BME280;19508;42.578;23.416;2022-10-17T07:22:54;95143.47;;;16.23;46.09
33151;BME280;19508;42.578;23.416;2022-10-17T07:25:19;95153.75;;;16.16;46.49
33151;BME280;19508;42.578;23.416;2022-10-17T07:27:45;95149.03;;;16.33;45.35
33151;BME280;19508;42.578;23.416;2022-10-17T07:30:12;95155.97;;;16.19;45.69
33151;BME280;19508;42.578;23.416;2022-10-17T07:32:37;95153.56;;;16.49;46.72
33151;BME280;19508;42.578;23.416;2022-10-17T07:35:03;95150.25;;;17.11;44.79
33151;BME280;19508;42.578;23.416;2022-10-17T07:37:29;95144.34;;;17.25;44.76
33151;BME280;19508;42.578;23.416;2022-10-17T07:39:54;95138.03;;;17.66;43.31
33151;BME280;19508;42.578;23.416;2022-10-17T07:42:21;95151.78;;;17.87;42.15
33151;BME280;19508;42.578;23.416;2022-10-17T07:44:47;95149.44;;;18.21;41.48
33151;BME280;19508;42.578;23.416;2022-10-17T07:47:12;95148.97;;;18.54;40.51
33151;BME280;19508;42.578;23.416;2022-10-17T07:49:38;95151.44;;;18.71;41.39
33151;BME280;19508;42.578;23.416;2022-10-17T07:52:17;95150.34;;;19.03;40.16
33151;BME280;19508;42.578;23.416;2022-10-17T07:54:42;95150.91;;;19.15;39.57
33151;BME280;19508;42.578;23.416;2022-10-17T08:20:35;95136.78;;;21.21;36.09
33151;BME280;19508;42.578;23.416;2022-10-17T08:23:01;95133.34;;;21.39;35.71
33151;BME280;19508;42.578;23.416;2022-10-17T08:25:26;95130.31;;;21.40;34.65
33151;BME280;19508;42.578;23.416;2022-10-17T08:27:51;95125.25;;;21.19;37.36
33151;BME280;19508;42.578;23.416;2022-10-17T08:30:17;95129.03;;;21.57;34.89
33151;BME280;19508;42.578;23.416;2022-10-17T08:32:42;95117.13;;;21.43;35.01
33151;BME280;19508;42.578;23.416;2022-10-17T08:35:08;95130.03;;;21.66;34.18
33151;BME280;19508;42.578;23.416;2022-10-17T08:37:34;95135.81;;;21.88;33.48
33151;BME280;19508;42.578;23.416;2022-10-17T08:39:59;95130.81;;;21.72;34.80
33151;BME280;19508;42.578;23.416;2022-10-17T08:47:42;95137.94;;;22.58;31.14
33151;BME280;19508;42.578;23.416;2022-10-17T08:50:31;95130.84;;;22.71;31.21
33151;BME280;19508;42.578;23.416;2022-10-17T08:53:07;95128.44;;;22.32;30.67
33151;BME280;19508;42.578;23.416;2022-10-17T08:55:46;95134.56;;;22.23;31.39
33151;BME280;19508;42.578;23.416;2022-10-17T08:58:13;95136.19;;;22.24;30.06
33151;BME280;19508;42.578;23.416;2022-10-17T09:00:42;95137.78;;;22.31;30.31
33151;BME280;19508;42.578;23.416;2022-10-17T09:03:36;95136.47;;;21.80;31.62
33151;BME280;19508;42.578;23.416;2022-10-17T09:06:18;95136.00;;;22.40;31.27
33151;BME280;19508;42.578;23.416;2022-10-17T09:14:18;95136.25;;;23.14;29.69
33151;BME280;19508;42.578;23.416;2022-10-17T09:17:02;95129.16;;;22.94;27.92
33151;BME280;19508;42.578;23.416;2022-10-17T09:19:38;95135.38;;;22.80;28.55
33151;BME280;19508;42.578;23.416;2022-10-17T09:22:14;95134.34;;;22.76;27.98
33151;BME280;19508;42.578;23.416;2022-10-17T09:25:02;95128.22;;;23.17;28.01
33151;BME280;19508;42.578;23.416;2022-10-17T09:27:47;95134.75;;;23.21;26.39
33151;BME280;19508;42.578;23.416;2022-10-17T09:30:43;95128.09;;;23.55;28.12
33151;BME280;19508;42.578;23.416;2022-10-17T09:33:38;95137.31;;;23.91;27.00
33151;BME280;19508;42.578;23.416;2022-10-17T09:36:09;95129.16;;;24.41;25.28
33151;BME280;19508;42.578;23.416;2022-10-17T09:38:42;95128.97;;;24.38;24.74
33151;BME280;19508;42.578;23.416;2022-10-17T09:41:23;95136.06;;;24.53;23.78
33151;BME280;19508;42.578;23.416;2022-10-17T09:43:51;95132.78;;;24.64;24.51
33151;BME280;19508;42.578;23.416;2022-10-17T09:46:31;95124.72;;;24.90;23.90
33151;BME280;19508;42.578;23.416;2022-10-17T09:49:14;95124.66;;;24.45;26.82
33151;BME280;19508;42.578;23.416;2022-10-17T09:51:41;95114.63;;;24.63;23.66
33151;BME280;19508;42.578;23.416;2022-10-17T09:55:01;95125.72;;;24.94;24.29
33151;BME280;19508;42.578;23.416;2022-10-17T09:57:20;95117.94;;;24.24;25.74
33151;BME280;19508;42.578;23.416;2022-10-17T10:07:17;95124.69;;;22.98;24.93
33151;BME280;19508;42.578;23.416;2022-10-17T10:09:46;95116.06;;;23.37;24.75
33151;BME280;19508;42.578;23.416;2022-10-17T10:12:32;95113.22;;;23.56;24.56
33151;BME280;19508;42.578;23.416;2022-10-17T10:14:58;95107.97;;;23.73;24.43
33151;BME280;19508;42.578;23.416;2022-10-17T10:17:40;95115.94;;;24.02;25.38
33151;BME280;19508;42.578;23.416;2022-10-17T10:23:13;95110.84;;;23.96;25.05
33151;BME280;19508;42.578;23.416;2022-10-17T10:25:51;95116.22;;;23.59;24.76
33151;BME280;19508;42.578;23.416;2022-10-17T10:28:18;95099.59;;;23.51;24.25
33151;BME280;19508;42.578;23.416;2022-10-17T10:30:48;95096.50;;;23.39;24.67
33151;BME280;19508;42.578;23.416;2022-10-17T10:33:18;95100.03;;;23.12;24.69
33151;BME280;19508;42.578;23.416;2022-10-17T10:35:52;95098.03;;;22.79;27.39
33151;BME280;19508;42.578;23.416;2022-10-17T10:38:19;95093.41;;;22.61;26.69
33151;BME280;19508;42.578;23.416;2022-10-17T10:40:46;95093.97;;;22.96;26.03
33151;BME280;19508;42.578;23.416;2022-10-17T10:43:33;95097.59;;;23.10;26.00
33151;BME280;19508;42.578;23.416;2022-10-17T10:45:59;95093.16;;;22.95;25.34
33151;BME280;19508;42.578;23.416;2022-10-17T10:48:27;95084.91;;;23.28;25.75
33151;BME280;19508;42.578;23.416;2022-10-17T10:51:08;95085.47;;;23.11;25.41
33151;BME280;19508;42.578;23.416;2022-10-17T10:53:42;95091.72;;;22.98;24.82
33151;BME280;19508;42.578;23.416;2022-10-17T10:58:50;95089.63;;;22.57;26.69
33151;BME280;19508;42.578;23.416;2022-10-17T11:06:54;95085.09;;;22.29;26.08
33151;BME280;19508;42.578;23.416;2022-10-17T11:12:42;95075.50;;;21.64;27.59
33151;BME280;19508;42.578;23.416;2022-10-17T11:15:21;95062.78;;;21.50;29.49
33151;BME280;19508;42.578;23.416;2022-10-17T11:20:53;95067.03;;;21.08;29.07
33151;BME280;19508;42.578;23.416;2022-10-17T11:26:12;95068.13;;;21.12;27.99
33151;BME280;19508;42.578;23.416;2022-10-17T11:28:40;95059.13;;;21.06;28.54
33151;BME280;19508;42.578;23.416;2022-10-17T11:31:11;95064.31;;;21.08;28.87
33151;BME280;19508;42.578;23.416;2022-10-17T11:36:09;95063.19;;;21.09;28.57
33151;BME280;19508;42.578;23.416;2022-10-17T11:38:40;95052.38;;;21.23;28.17
33151;BME280;19508;42.578;23.416;2022-10-17T11:41:11;95053.19;;;21.28;28.79
33151;BME280;19508;42.578;23.416;2022-10-17T11:43:44;95061.97;;;21.49;28.33
33151;BME280;19508;42.578;23.416;2022-10-17T11:46:17;95048.06;;;21.17;28.59
33151;BME280;19508;42.578;23.416;2022-10-17T11:48:51;95049.16;;;21.16;28.34
33151;BME280;19508;42.578;23.416;2022-10-17T11:51:20;95050.06;;;21.11;28.32
33151;BME280;19508;42.578;23.416;2022-10-17T11:56:21;95041.09;;;21.53;28.12
33151;BME280;19508;42.578;23.416;2022-10-17T12:01:49;95038.22;;;22.06;26.82
33151;BME280;19508;42.578;23.416;2022-10-17T12:09:22;95040.66;;;21.89;26.96
33151;BME280;19508;42.578;23.416;2022-10-17T12:11:54;95037.78;;;21.56;26.70
33151;BME280;19508;42.578;23.416;2022-10-17T12:16:58;95037.56;;;21.29;25.72
33151;BME280;19508;42.578;23.416;2022-10-17T12:19:26;95038.72;;;21.47;26.50
33151;BME280;19508;42.578;23.416;2022-10-17T12:21:58;95034.94;;;21.85;26.07
33151;BME280;19508;42.578;23.416;2022-10-17T12:24:38;95035.69;;;22.66;26.83
33151;BME280;19508;42.578;23.416;2022-10-17T12:33:00;95021.00;;;22.90;25.15
33151;BME280;19508;42.578;23.416;2022-10-17T12:35:29;95025.13;;;23.06;26.42
33151;BME280;19508;42.578;23.416;2022-10-17T12:45:56;95023.75;;;23.77;24.23
33151;BME280;19508;42.578;23.416;2022-10-17T12:53:44;95014.19;;;23.61;24.00
33151;BME280;19508;42.578;23.416;2022-10-17T12:56:18;95007.75;;;23.66;23.82
33151;BME280;19508;42.578;23.416;2022-10-17T12:58:48;95013.84;;;23.90;23.39
33151;BME280;19508;42.578;23.416;2022-10-17T13:01:26;95001.72;;;24.94;22.74
33151;BME280;19508;42.578;23.416;2022-10-17T13:03:53;95005.91;;;25.85;22.46
33151;BME280;19508;42.578;23.416;2022-10-17T13:06:28;95008.22;;;26.95;21.80
33151;BME280;19508;42.578;23.416;2022-10-17T13:09:00;95011.56;;;27.36;21.44
33151;BME280;19508;42.578;23.416;2022-10-17T13:11:28;95010.47;;;27.02;20.65
33151;BME280;19508;42.578;23.416;2022-10-17T13:13:56;95012.63;;;27.52;21.20
33151;BME280;19508;42.578;23.416;2022-10-17T13:16:34;95001.84;;;28.18;20.51
33151;BME280;19508;42.578;23.416;2022-10-17T13:19:02;95007.06;;;27.69;20.19
33151;BME280;19508;42.578;23.416;2022-10-17T13:21:28;95001.66;;;27.17;21.69
33151;BME280;19508;42.578;23.416;2022-10-17T13:23:53;95000.13;;;26.56;20.64
33151;BME280;19508;42.578;23.416;2022-10-17T13:26:27;95010.31;;;25.95;20.26
33151;BME280;19508;42.578;23.416;2022-10-17T13:29:15;95013.47;;;25.31;20.06
33151;BME280;19508;42.578;23.416;2022-10-17T13:31:43;95004.84;;;25.01;20.54
33151;BME280;19508;42.578;23.416;2022-10-17T13:34:16;95010.09;;;24.81;21.44
33151;BME280;19508;42.578;23.416;2022-10-17T13:36:44;95001.00;;;24.35;21.86
33151;BME280;19508;42.578;23.416;2022-10-17T13:39:16;95016.66;;;24.12;23.15
33151;BME280;19508;42.578;23.416;2022-10-17T13:41:42;95017.47;;;24.13;22.33
33151;BME280;19508;42.578;23.416;2022-10-17T13:44:17;95006.50;;;23.99;21.77
33151;BME280;19508;42.578;23.416;2022-10-17T13:46:44;95016.50;;;23.54;21.17
33151;BME280;19508;42.578;23.416;2022-10-17T13:51:47;95008.78;;;23.42;24.12
33151;BME280;19508;42.578;23.416;2022-10-17T13:54:40;95009.38;;;23.53;25.43
33151;BME280;19508;42.578;23.416;2022-10-17T13:57:23;95014.88;;;23.53;25.68
33151;BME280;19508;42.578;23.416;2022-10-17T13:59:52;95013.25;;;23.52;25.34
33151;BME280;19508;42.578;23.416;2022-10-17T14:02:22;95016.00;;;23.79;25.64
33151;BME280;19508;42.578;23.416;2022-10-17T14:05:13;95011.72;;;23.87;25.45
33151;BME280;19508;42.578;23.416;2022-10-17T14:07:45;95002.78;;;23.68;25.62
33151;BME280;19508;42.578;23.416;2022-10-17T14:10:21;95021.78;;;23.23;25.44
33151;BME280;19508;42.578;23.416;2022-10-17T14:12:49;95020.59;;;22.64;25.85
33151;BME280;19508;42.578;23.416;2022-10-17T14:15:15;95021.03;;;22.19;26.59
33151;BME280;19508;42.578;23.416;2022-10-17T14:17:42;95021.81;;;21.82;27.76
33151;BME280;19508;42.578;23.416;2022-10-17T14:20:18;95021.19;;;21.48;28.56
33151;BME280;19508;42.578;23.416;2022-10-17T14:22:44;95025.97;;;21.08;28.13
33151;BME280;19508;42.578;23.416;2022-10-17T14:25:45;95027.38;;;20.76;28.88
33151;BME280;19508;42.578;23.416;2022-10-17T14:30:43;95026.09;;;19.90;29.85
33151;BME280;19508;42.578;23.416;2022-10-17T14:33:20;95029.78;;;19.55;30.63
33151;BME280;19508;42.578;23.416;2022-10-17T14:35:50;95033.44;;;19.30;32.12
33151;BME280;19508;42.578;23.416;2022-10-17T14:38:17;95034.09;;;19.07;32.49
33151;BME280;19508;42.578;23.416;2022-10-17T14:41:08;95036.84;;;18.92;32.40
33151;BME280;19508;42.578;23.416;2022-10-17T14:43:37;95027.03;;;18.60;32.91
33151;BME280;19508;42.578;23.416;2022-10-17T14:46:03;95046.41;;;18.48;34.20
33151;BME280;19508;42.578;23.416;2022-10-17T14:48:29;95034.41;;;18.29;33.87
33151;BME280;19508;42.578;23.416;2022-10-17T14:51:08;95039.28;;;18.07;34.85
33151;BME280;19508;42.578;23.416;2022-10-17T14:53:35;95045.22;;;17.83;35.10
33151;BME280;19508;42.578;23.416;2022-10-17T14:56:21;95047.84;;;17.58;35.66
33151;BME280;19508;42.578;23.416;2022-10-17T14:58:46;95051.28;;;17.28;35.44
33151;BME280;19508;42.578;23.416;2022-10-17T15:01:12;95049.84;;;17.10;36.74
33151;BME280;19508;42.578;23.416;2022-10-17T15:03:42;95047.25;;;16.88;36.21
33151;BME280;19508;42.578;23.416;2022-10-17T15:08:40;95063.25;;;16.47;37.56
33151;BME280;19508;42.578;23.416;2022-10-17T15:11:05;95063.19;;;16.37;37.44
33151;BME280;19508;42.578;23.416;2022-10-17T15:13:30;95058.06;;;16.14;38.63
33151;BME280;19508;42.578;23.416;2022-10-17T15:15:56;95062.94;;;16.06;39.54
33151;BME280;19508;42.578;23.416;2022-10-17T15:18:21;95066.09;;;15.98;39.74
33151;BME280;19508;42.578;23.416;2022-10-17T15:20:47;95064.34;;;15.87;39.22